Time;durP1;ratioP1;P1;durP2;ratioP2;P2;SDS_P1;SDS_P2;PMS_P1;PMS_P2;Temp;Humidity;BMP_temperature;BMP_pressure;BME280_temperature;BME280_humidity;BME280_pressure;Samples;Min_cycle;Max_cycle;Signal;HPM_P1;HPM_P2
2022/09/21 00:01:18;;;;;;;5.43;2.83;;;;;;;4.67;100.00;96209.44;5044109;28;20128;-76
2022/09/21 00:03:44;;;;;;;6.22;2.35;;;;;;;4.50;100.00;96203.16;5049495;28;20049;-76
2022/09/21 00:06:14;;;;;;;6.05;2.60;;;;;;;4.55;100.00;96205.91;5050383;28;20045;-76
2022/09/21 00:08:40;;;;;;;6.20;2.55;;;;;;;4.40;100.00;96213.28;5044669;28;20056;-76
2022/09/21 00:11:11;;;;;;;5.22;2.20;;;;;;;4.46;100.00;96207.22;5045532;28;20530;-76
2022/09/21 00:13:36;;;;;;;6.20;2.70;;;;;;;4.47;100.00;96208.81;5050818;28;20265;-76
2022/09/21 00:16:05;;;;;;;8.90;2.63;;;;;;;4.44;100.00;96217.03;5042222;28;20493;-76
2022/09/21 00:18:32;;;;;;;7.03;2.58;;;;;;;4.39;100.00;96217.69;5043684;28;20453;-76
2022/09/21 00:20:57;;;;;;;5.63;2.65;;;;;;;4.38;100.00;96215.28;5040311;28;20092;-76
2022/09/21 00:23:23;;;;;;;4.97;2.67;;;;;;;4.25;100.00;96221.38;5045067;28;20116;-76
2022/09/21 00:25:49;;;;;;;7.13;2.78;;;;;;;4.30;100.00;96213.75;5043013;28;20045;-76
2022/09/21 00:28:14;;;;;;;5.25;2.60;;;;;;;4.19;100.00;96217.81;5049765;28;20041;-76
2022/09/21 00:30:40;;;;;;;4.95;2.58;;;;;;;4.16;100.00;96223.44;5046816;28;20056;-76
2022/09/21 00:33:05;;;;;;;3.95;2.50;;;;;;;4.18;100.00;96226.66;5046186;28;20084;-75
2022/09/21 00:35:32;;;;;;;8.98;2.95;;;;;;;4.08;100.00;96221.09;5032332;28;20041;-76
2022/09/21 00:38:01;;;;;;;5.70;2.70;;;;;;;3.97;100.00;96218.16;5048374;28;20041;-76
2022/09/21 00:40:28;;;;;;;8.13;2.90;;;;;;;4.03;100.00;96224.34;5036106;28;20056;-77
2022/09/21 00:42:53;;;;;;;4.38;2.58;;;;;;;3.95;100.00;96217.59;5039578;28;20816;-76
2022/09/21 00:45:21;;;;;;;5.82;2.70;;;;;;;3.93;100.00;96224.78;5044630;28;20045;-76
2022/09/21 00:47:51;;;;;;;4.57;2.60;;;;;;;3.93;100.00;96219.56;5041229;28;20049;-77
2022/09/21 00:50:23;;;;;;;4.80;2.45;;;;;;;3.87;100.00;96220.44;5047035;28;20041;-76
2022/09/21 00:52:53;;;;;;;5.95;2.40;;;;;;;3.84;100.00;96220.06;5040971;28;20095;-75
2022/09/21 00:55:24;;;;;;;10.57;2.70;;;;;;;3.85;100.00;96221.63;5045981;28;20045;-75
2022/09/21 00:57:56;;;;;;;8.02;2.50;;;;;;;3.80;100.00;96227.47;5049371;28;20068;-76
2022/09/21 01:00:22;;;;;;;4.43;2.22;;;;;;;3.75;100.00;96222.91;5044902;28;20041;-75
2022/09/21 01:02:48;;;;;;;4.35;2.58;;;;;;;3.73;100.00;96218.91;5034074;28;20396;-75
2022/09/21 01:05:13;;;;;;;5.28;2.20;;;;;;;3.66;100.00;96218.13;5042712;28;20115;-74
2022/09/21 01:07:43;;;;;;;4.60;2.60;;;;;;;3.50;100.00;96220.19;5043067;28;20585;-75
2022/09/21 01:10:13;;;;;;;6.72;2.75;;;;;;;3.62;100.00;96223.75;5042610;28;20080;-75
2022/09/21 01:12:57;;;;;;;6.40;2.53;;;;;;;3.52;100.00;96218.19;5044988;28;20045;-75
2022/09/21 01:15:39;;;;;;;4.80;2.37;;;;;;;3.53;100.00;96222.38;5043770;28;20738;-74
2022/09/21 01:18:17;;;;;;;5.03;2.58;;;;;;;3.44;100.00;96215.81;5049602;28;20047;-75
2022/09/21 01:21:01;;;;;;;4.30;2.47;;;;;;;3.49;100.00;96218.59;5047117;28;20672;-75
2022/09/21 01:23:39;;;;;;;;;;;;;;;3.39;100.00;96218.22;5034645;28;20052;-76
2022/09/21 01:26:26;;;;;;;5.22;2.72;;;;;;;3.33;100.00;96219.06;5044812;28;19947;-75
2022/09/21 01:29:24;;;;;;;7.18;2.85;;;;;;;3.28;100.00;96220.47;5040752;28;20036;-75
2022/09/21 01:32:00;;;;;;;8.45;2.80;;;;;;;3.26;100.00;96214.69;5038384;28;20041;-76
2022/09/21 01:34:35;;;;;;;6.60;2.42;;;;;;;3.23;100.00;96217.72;5044221;28;20045;-75
2022/09/21 01:37:03;;;;;;;;;;;;;;;3.25;100.00;96218.28;5051122;28;20041;-75
2022/09/21 01:39:31;;;;;;;6.68;2.58;;;;;;;3.14;100.00;96221.53;5046531;28;20012;-75
2022/09/21 01:41:58;;;;;;;5.30;2.72;;;;;;;3.16;100.00;96229.94;5050481;28;20037;-75
2022/09/21 01:44:29;;;;;;;8.82;3.05;;;;;;;3.09;100.00;96224.75;5037539;28;20072;-75
2022/09/21 01:46:56;;;;;;;10.40;2.60;;;;;;;3.13;100.00;96225.13;5035352;28;20053;-76
2022/09/21 01:49:30;;;;;;;6.93;2.85;;;;;;;3.11;100.00;96216.72;5036370;28;20041;-76
2022/09/21 01:52:11;;;;;;;8.45;2.85;;;;;;;3.05;100.00;96220.16;5041616;28;20446;-77
2022/09/21 01:54:42;;;;;;;5.45;2.83;;;;;;;3.06;100.00;96219.13;5044911;28;20515;-77
2022/09/21 01:57:20;;;;;;;6.65;2.80;;;;;;;3.06;100.00;96219.13;5037117;28;20482;-77
2022/09/21 01:59:54;;;;;;;9.07;2.55;;;;;;;3.12;100.00;96223.53;5046917;28;20037;-77
2022/09/21 02:02:23;;;;;;;;;;;;;;;3.06;100.00;96219.13;5046336;28;20041;-74
2022/09/21 02:04:49;;;;;;;9.05;2.70;;;;;;;2.98;100.00;96221.97;5046507;28;20424;-74
2022/09/21 02:07:17;;;;;;;5.68;2.53;;;;;;;3.00;100.00;96225.16;5043143;28;20124;-75
2022/09/21 02:09:43;;;;;;;7.20;2.60;;;;;;;2.92;100.00;96226.97;5046317;28;20048;-75
2022/09/21 02:12:09;;;;;;;7.88;2.97;;;;;;;2.95;100.00;96221.38;5030987;28;20044;-75
2022/09/21 02:14:36;;;;;;;9.18;3.50;;;;;;;2.90;100.00;96226.38;5046190;28;20053;-76
2022/09/21 02:17:06;;;;;;;4.88;2.80;;;;;;;2.87;100.00;96224.16;5041713;28;20521;-76
2022/09/21 02:19:53;;;;;;;7.25;2.50;;;;;;;2.84;100.00;96221.19;5044992;28;20045;-76
2022/09/21 02:22:34;;;;;;;5.57;2.78;;;;;;;2.87;100.00;96218.97;5038823;28;20674;-76
2022/09/21 02:25:09;;;;;;;5.53;2.70;;;;;;;2.82;100.00;96218.00;5036087;28;20529;-77
2022/09/21 02:27:43;;;;;;;;;;;;;;;2.90;100.00;96221.19;5045898;28;20048;-76
2022/09/21 02:30:20;;;;;;;5.05;2.70;;;;;;;2.78;100.00;96217.59;5038408;28;19925;-76
2022/09/21 02:33:08;;;;;;;7.13;3.13;;;;;;;2.77;100.00;96216.00;5043507;28;20091;-76
2022/09/21 02:36:04;;;;;;;9.40;2.97;;;;;;;2.83;100.00;96220.41;5042156;28;20620;-76
2022/09/21 02:38:39;;;;;;;6.93;2.60;;;;;;;2.84;100.00;96224.56;5033449;28;20065;-76
2022/09/21 02:41:23;;;;;;;4.50;2.42;;;;;;;2.87;100.00;96225.97;5048755;28;20045;-76
2022/09/21 02:44:02;;;;;;;9.10;3.08;;;;;;;2.76;100.00;96219.63;5053869;28;20062;-76
2022/09/21 02:46:34;;;;;;;8.00;2.60;;;;;;;2.76;100.00;96224.81;5041387;28;20041;-75
2022/09/21 02:49:08;;;;;;;6.55;2.67;;;;;;;2.77;100.00;96223.78;5047591;28;20052;-76
2022/09/21 02:51:42;;;;;;;7.60;2.95;;;;;;;2.64;100.00;96216.81;5032033;28;20410;-75
2022/09/21 02:54:12;;;;;;;3.65;2.47;;;;;;;2.58;100.00;96228.78;5031038;28;20049;-76
2022/09/21 02:56:40;;;;;;;5.15;2.75;;;;;;;2.71;100.00;96216.81;5037601;28;20037;-76
2022/09/21 02:59:06;;;;;;;4.32;2.38;;;;;;;2.68;100.00;96218.00;5036995;28;20042;-76
2022/09/21 03:01:32;;;;;;;7.35;2.65;;;;;;;2.76;100.00;96214.41;5030211;28;20523;-77
2022/09/21 03:03:57;;;;;;;5.70;2.80;;;;;;;2.52;100.00;96214.00;5044088;28;20049;-76
2022/09/21 03:06:23;;;;;;;4.03;2.50;;;;;;;2.58;100.00;96223.59;5034761;28;20049;-76
2022/09/21 03:08:49;;;;;;;6.80;3.00;;;;;;;2.51;100.00;96222.81;5041312;28;20041;-76
2022/09/21 03:11:18;;;;;;;5.75;2.50;;;;;;;2.41;100.00;96212.84;5034840;28;20047;-76
2022/09/21 03:13:44;;;;;;;8.48;2.65;;;;;;;2.42;100.00;96213.63;5039026;28;20045;-76
2022/09/21 03:16:11;;;;;;;4.18;2.72;;;;;;;2.43;100.00;96225.63;5032611;28;20048;-76
2022/09/21 03:18:36;;;;;;;4.25;2.40;;;;;;;2.46;100.00;96233.00;5042313;28;20162;-76
2022/09/21 03:21:02;;;;;;;6.13;2.88;;;;;;;2.43;100.00;96230.81;5041348;28;20116;-75
2022/09/21 03:23:28;;;;;;;4.68;2.47;;;;;;;2.43;100.00;96236.00;5049066;28;20410;-76
2022/09/21 03:25:54;;;;;;;4.95;2.67;;;;;;;2.40;100.00;96246.81;5038938;28;20049;-76
2022/09/21 03:28:20;;;;;;;6.15;2.65;;;;;;;2.33;100.00;96235.59;5048364;28;20051;-76
2022/09/21 03:30:50;;;;;;;5.32;2.30;;;;;;;2.29;100.00;96245.59;5037167;28;20048;-76
2022/09/21 03:33:17;;;;;;;3.92;2.20;;;;;;;2.18;100.00;96241.75;5045950;28;20041;-76
2022/09/21 03:35:43;;;;;;;4.00;2.20;;;;;;;2.24;100.00;96241.00;5045779;28;20052;-76
2022/09/21 03:38:09;;;;;;;4.85;2.45;;;;;;;2.18;100.00;96249.56;5034790;28;20067;-76
2022/09/21 03:40:35;;;;;;;8.18;2.53;;;;;;;2.10;100.00;96241.16;5037447;28;20038;-76
2022/09/21 03:43:00;;;;;;;5.45;2.58;;;;;;;2.11;100.00;96243.56;5039356;28;20122;-75
2022/09/21 03:45:26;;;;;;;5.25;3.08;;;;;;;2.04;100.00;96242.75;5047201;28;20529;-75
2022/09/21 03:47:59;;;;;;;4.90;2.40;;;;;;;2.06;100.00;96235.56;5036243;28;20042;-76
2022/09/21 03:50:27;;;;;;;7.72;2.83;;;;;;;2.05;100.00;96233.97;5045942;28;20117;-75
2022/09/21 03:52:53;;;;;;;4.63;2.50;;;;;;;1.98;100.00;96235.75;5039727;28;20048;-75
2022/09/21 03:55:18;;;;;;;4.75;2.38;;;;;;;1.90;100.00;96236.75;5048269;28;20045;-75
2022/09/21 03:57:44;;;;;;;4.35;2.33;;;;;;;1.99;100.00;96234.75;5031576;28;20462;-75
2022/09/21 04:00:10;;;;;;;9.55;2.33;;;;;;;1.86;100.00;96225.94;5028235;28;20492;-75
2022/09/21 04:02:38;;;;;;;4.47;2.25;;;;;;;1.88;100.00;96234.34;5035518;28;20487;-75
2022/09/21 04:05:05;;;;;;;4.78;2.55;;;;;;;1.86;100.00;96238.91;5046241;28;20041;-75
2022/09/21 04:07:33;;;;;;;5.68;2.55;;;;;;;1.83;100.00;96241.91;5044266;28;20047;-75
2022/09/21 04:10:11;;;;;;;6.68;2.83;;;;;;;1.84;100.00;96238.31;5037790;28;20045;-75
2022/09/21 04:12:42;;;;;;;13.63;2.67;;;;;;;1.82;100.00;96245.50;5040050;28;20098;-76
2022/09/21 04:15:18;;;;;;;4.03;2.47;;;;;;;1.77;100.00;96245.28;5046068;28;20479;-75
2022/09/21 04:17:45;;;;;;;5.18;2.45;;;;;;;1.84;100.00;96237.50;5044071;28;20046;-75
2022/09/21 04:20:11;;;;;;;4.40;2.30;;;;;;;1.83;100.00;96252.28;5032539;28;20039;-75
2022/09/21 04:22:37;;;;;;;4.78;2.55;;;;;;;1.86;100.00;96246.69;5044686;28;20045;-75
2022/09/21 04:25:03;;;;;;;5.13;2.65;;;;;;;1.78;100.00;96253.88;5047515;28;20498;-75
2022/09/21 04:27:30;;;;;;;8.38;2.80;;;;;;;1.77;100.00;96253.06;5045358;28;20041;-75
2022/09/21 04:29:55;;;;;;;5.93;2.67;;;;;;;1.80;100.00;96252.69;5039661;28;20081;-75
2022/09/21 04:32:21;;;;;;;10.25;3.90;;;;;;;1.68;100.00;96249.84;5042767;28;20103;-76
2022/09/21 04:34:46;;;;;;;9.02;2.72;;;;;;;1.74;100.00;96248.28;5045257;28;20048;-76
2022/09/21 04:37:12;;;;;;;5.85;2.50;;;;;;;1.76;100.00;96254.06;5046096;28;20042;-76
2022/09/21 04:39:38;;;;;;;5.63;2.35;;;;;;;1.64;100.00;96247.81;5036306;28;20068;-76
2022/09/21 04:42:04;;;;;;;4.85;2.60;;;;;;;1.66;100.00;96258.81;5044856;28;20052;-76
2022/09/21 04:44:30;;;;;;;8.38;2.92;;;;;;;1.61;100.00;96249.03;5034328;28;20111;-76
2022/09/21 04:46:57;;;;;;;5.22;2.85;;;;;;;1.65;100.00;96250.25;5044142;28;20045;-76
2022/09/21 04:49:22;;;;;;;8.95;4.68;;;;;;;1.61;100.00;96256.00;5046028;28;20063;-76
2022/09/21 04:51:49;;;;;;;7.97;4.40;;;;;;;1.64;100.00;96258.19;5046769;28;20037;-76
2022/09/21 04:54:15;;;;;;;5.90;3.15;;;;;;;1.56;100.00;96257.38;5049825;28;20049;-75
2022/09/21 04:56:40;;;;;;;6.85;3.45;;;;;;;1.60;100.00;96267.38;5046696;28;20091;-75
2022/09/21 04:59:06;;;;;;;11.52;4.57;;;;;;;1.52;100.00;96266.56;5036391;28;20033;-76
2022/09/21 05:01:31;;;;;;;7.57;3.90;;;;;;;1.52;100.00;96266.56;5040909;28;20127;-76
2022/09/21 05:04:00;;;;;;;7.85;3.42;;;;;;;1.51;100.00;96275.34;5048672;28;20037;-76
2022/09/21 05:06:30;;;;;;;9.50;3.80;;;;;;;1.55;100.00;96281.75;5037551;28;20372;-76
2022/09/21 05:11:40;;;;;;;8.48;3.75;;;;;;;1.54;100.00;96285.31;5042828;28;20494;-76
2022/09/21 05:14:06;;;;;;;7.07;4.18;;;;;;;1.50;100.00;96289.28;5046144;28;20044;-77
2022/09/21 05:16:31;;;;;;;8.95;3.88;;;;;;;1.48;100.00;96291.28;5044195;28;20556;-76
2022/09/21 05:18:57;;;;;;;5.25;3.33;;;;;;;1.40;100.00;96283.66;5048010;28;20049;-77
2022/09/21 05:21:22;;;;;;;6.78;3.30;;;;;;;1.43;100.00;96283.28;5034497;28;20112;-76
2022/09/21 05:23:48;;;;;;;12.30;3.40;;;;;;;1.55;100.00;96286.09;5044575;28;20116;-75
2022/09/21 05:26:13;;;;;;;7.30;3.50;;;;;;;1.53;100.00;96288.91;5040264;28;20068;-75
2022/09/21 05:28:39;;;;;;;6.45;3.53;;;;;;;1.59;100.00;96281.34;5043659;28;20070;-75
2022/09/21 05:31:17;;;;;;;8.57;3.33;;;;;;;1.56;100.00;96293.69;5043092;28;20605;-75
2022/09/21 05:33:52;;;;;;;6.75;3.38;;;;;;;1.60;100.00;96283.75;5039842;28;20052;-75
2022/09/21 05:36:59;;;;;;;5.93;3.22;;;;;;;1.71;100.00;96290.16;5044364;28;20083;-76
2022/09/21 05:39:25;;;;;;;5.05;2.65;;;;;;;1.79;100.00;96295.19;4982884;28;20054;-75
2022/09/21 05:41:51;;;;;;;7.60;2.70;;;;;;;1.71;100.00;96287.56;4988927;28;20050;-76
2022/09/21 05:44:17;;;;;;;5.22;2.70;;;;;;;1.73;100.00;96294.16;5015589;28;20080;-76
2022/09/21 05:46:58;;;;;;;5.38;2.70;;;;;;;1.75;100.00;96301.75;5048347;28;20479;-76
2022/09/21 05:49:48;;;;;;;7.78;2.92;;;;;;;1.77;100.00;96294.59;5045116;28;20047;-77
2022/09/21 05:52:26;;;;;;;5.45;3.10;;;;;;;1.82;100.00;96297.41;5053468;28;20040;-76
2022/09/21 05:55:04;;;;;;;5.70;2.78;;;;;;;1.92;100.00;96291.06;5047403;28;20048;-77
2022/09/21 05:57:35;;;;;;;6.85;2.83;;;;;;;1.93;100.00;96293.44;5047045;28;20049;-77
2022/09/21 06:00:32;;;;;;;5.88;2.80;;;;;;;2.10;100.00;96293.91;5035693;28;20045;-76
2022/09/21 06:03:28;;;;;;;6.65;3.22;;;;;;;2.25;100.00;96297.13;5034446;28;20108;-76
2022/09/21 06:05:53;;;;;;;10.68;3.30;;;;;;;2.38;100.00;96300.75;5027910;28;20057;-77
2022/09/21 06:08:19;;;;;;;10.05;3.30;;;;;;;2.51;100.00;96285.16;5047537;28;20115;-77
2022/09/21 06:10:44;;;;;;;10.23;3.78;;;;;;;2.67;100.00;96289.19;5041584;28;20514;-77
2022/09/21 06:13:10;;;;;;;8.45;3.78;;;;;;;2.83;100.00;96293.19;5039003;28;20048;-77
2022/09/21 06:15:37;;;;;;;9.70;3.65;;;;;;;2.86;100.00;96292.78;5053699;28;20462;-76
2022/09/21 06:18:06;;;;;;;7.55;4.22;;;;;;;2.92;100.00;96302.38;5044895;28;20037;-77
2022/09/21 06:20:31;;;;;;;13.93;5.07;;;;;;;2.89;100.00;96292.38;5042765;28;20499;-77
2022/09/21 06:23:06;;;;;;;10.45;4.75;;;;;;;3.14;100.00;96289.13;5044378;28;20053;-76
2022/09/21 06:25:32;;;;;;;14.43;5.45;;;;;;;3.17;100.00;96295.75;5045846;28;20120;-77
2022/09/21 06:28:06;;;;;;;11.55;5.25;;;;;;;3.20;100.00;96303.94;5048013;28;20033;-76
2022/09/21 06:30:33;;;;;;;16.00;5.80;;;;;;;3.08;100.00;96295.16;5043882;28;20039;-77
2022/09/21 06:33:05;;;;;;;14.13;5.65;;;;;;;3.12;100.00;96301.56;5045223;28;20474;-77
2022/09/21 06:35:32;;;;;;;16.80;5.85;;;;;;;3.18;100.00;96305.94;5044448;28;20453;-77
2022/09/21 06:37:59;;;;;;;15.02;5.63;;;;;;;3.18;100.00;96300.75;5036902;28;20041;-77
2022/09/21 06:40:31;;;;;;;12.95;5.53;;;;;;;3.24;100.00;96305.13;5042635;28;20041;-77
2022/09/21 06:42:58;;;;;;;16.13;6.20;;;;;;;3.38;100.00;96299.91;5043201;28;20045;-77
2022/09/21 06:45:25;;;;;;;16.83;6.30;;;;;;;3.56;100.00;96307.88;5051399;28;20411;-78
2022/09/21 06:47:51;;;;;;;20.70;6.38;;;;;;;3.59;100.00;96302.25;5049529;28;20700;-78
2022/09/21 06:50:16;;;;;;;17.88;6.68;;;;;;;3.80;100.00;96308.19;5047541;28;20693;-77
2022/09/21 06:52:42;;;;;;;19.20;6.88;;;;;;;4.14;100.00;96314.06;5045658;28;20550;-77
2022/09/21 06:55:09;;;;;;;20.70;7.40;;;;;;;4.55;100.00;96307.59;5051108;28;20041;-77
2022/09/21 06:57:36;;;;;;;15.40;7.47;;;;;;;4.93;100.00;96304.09;5049828;28;20044;-83
2022/09/21 07:00:03;;;;;;;18.45;7.68;;;;;;;5.20;100.00;96301.25;5035948;28;20038;-79
2022/09/21 07:02:29;;;;;;;18.38;7.10;;;;;;;4.93;100.00;96304.09;5035674;28;20499;-76
2022/09/21 07:04:54;;;;;;;18.98;6.97;;;;;;;4.85;100.00;96309.56;5053877;28;20036;-77
2022/09/21 07:07:20;;;;;;;23.80;8.30;;;;;;;4.86;100.00;96316.41;5069584;28;20084;-76
2022/09/21 07:09:46;;;;;;;19.52;7.72;;;;;;;5.01;100.00;96311.66;5067792;28;20088;-75
2022/09/21 07:12:12;;;;;;;20.70;8.57;;;;;;;5.14;100.00;96312.53;5071540;28;20055;-76
2022/09/21 07:14:37;;;;;;;19.55;8.25;;;;;;;5.05;100.00;96306.00;5070463;28;20052;-78
2022/09/21 07:17:05;;;;;;;24.10;8.15;;;;;;;4.99;100.00;96318.88;5072864;28;20040;-75
2022/09/21 07:19:30;;;;;;;22.23;8.23;;;;;;;5.05;100.00;96313.84;5074928;28;20049;-76
2022/09/21 07:21:57;;;;;;;12.48;6.60;;;;;;;5.23;100.00;96308.66;5077786;28;20051;-77
2022/09/21 07:24:23;;;;;;;19.75;7.55;;;;;;;5.43;100.00;96305.03;5077454;28;20040;-77
2022/09/21 07:26:49;;;;;;;14.77;7.10;;;;;;;5.46;100.00;96309.81;5072622;28;20033;-77
2022/09/21 07:29:14;;;;;;;16.48;7.45;;;;;;;5.53;100.00;96310.56;5058807;28;20064;-78
2022/09/21 07:31:43;;;;;;;15.10;6.13;;;;;;;6.00;100.00;96312.69;5049501;28;20048;-78
2022/09/21 07:34:10;;;;;;;15.45;5.95;;;;;;;6.01;100.00;96322.13;5036523;28;20044;-77
2022/09/21 07:36:35;;;;;;;21.55;5.82;;;;;;;6.05;100.00;96311.00;5047394;28;20037;-79
2022/09/21 07:39:02;;;;;;;12.63;5.60;;;;;;;6.00;100.00;96321.31;5049860;28;20052;-79
2022/09/21 07:41:28;;;;;;;14.60;5.93;;;;;;;6.18;100.00;96317.09;5045543;28;20049;-78
2022/09/21 07:43:54;;;;;;;10.30;4.95;;;;;;;6.24;100.00;96321.41;5040313;28;20867;-80
2022/09/21 07:46:19;;;;;;;13.90;5.32;;;;;;;6.40;100.00;96320.78;5037515;28;20060;-77
2022/09/21 07:48:45;;;;;;;12.15;5.55;;;;;;;6.68;100.00;96327.25;5041425;28;20037;-77
2022/09/21 07:51:13;;;;;;;17.77;5.80;;;;;;;7.00;100.00;96329.56;5043566;28;20033;-77
2022/09/21 07:53:41;;;;;;;14.60;4.97;;;;;;;7.28;100.00;96315.00;5046796;28;20049;-82
2022/09/21 07:56:10;;;;;;;8.38;3.97;;;;;;;7.48;100.00;96313.88;5046523;28;20037;-78
2022/09/21 08:01:22;;;;;;;11.02;4.22;;;;;;;7.21;100.00;96314.31;5042432;28;20079;-80
2022/09/21 08:03:52;;;;;;;10.43;4.47;;;;;;;7.07;100.00;96319.78;5041003;28;20040;-76
2022/09/21 08:06:18;;;;;;;6.95;3.55;;;;;;;7.12;100.00;96332.19;5047159;28;20060;-78
2022/09/21 08:08:49;;;;;;;8.10;3.67;;;;;;;7.41;100.00;96319.22;5051574;28;20036;-77
2022/09/21 08:11:15;;;;;;;8.98;2.90;;;;;;;7.34;100.00;96321.97;5045334;28;20049;-76
2022/09/21 08:13:41;;;;;;;6.15;2.75;;;;;;;7.34;100.00;96319.34;5041931;28;20065;-76
2022/09/21 08:16:07;;;;;;;6.93;2.97;;;;;;;7.17;100.00;96308.75;5053122;28;20068;-77
2022/09/21 08:18:38;;;;;;;7.75;2.20;;;;;;;8.15;100.00;96319.41;5046144;28;20044;-77
2022/09/21 08:21:04;;;;;;;4.43;2.20;;;;;;;7.93;100.00;96313.19;5041755;28;20045;-77
2022/09/21 08:23:30;;;;;;;7.07;2.40;;;;;;;7.65;100.00;96314.75;5044677;28;20048;-77
2022/09/21 08:25:59;;;;;;;5.25;1.85;;;;;;;7.68;100.00;96319.53;5048809;28;20407;-77
2022/09/21 08:28:26;;;;;;;5.30;1.88;;;;;;;7.59;100.00;96321.72;5044318;28;20414;-77
2022/09/21 08:30:51;;;;;;;5.55;2.00;;;;;;;7.61;100.00;96319.69;5043973;28;20048;-77
2022/09/21 08:33:17;;;;;;;4.95;2.15;;;;;;;7.75;100.00;96320.19;5054491;28;20042;-77
2022/09/21 08:35:42;;;;;;;5.45;1.92;;;;;;;8.24;100.00;96316.41;5051708;28;20546;-77
2022/09/21 08:38:08;;;;;;;6.28;1.90;;;;;;;8.56;100.00;96313.34;5048727;28;20846;-76
2022/09/21 08:40:34;;;;;;;7.60;2.58;;;;;;;8.48;100.00;96317.94;5043028;28;20533;-77
2022/09/21 08:43:11;;;;;;;4.25;2.10;;;;;;;8.30;100.00;96316.28;5040454;28;20045;-77
2022/09/21 08:45:42;;;;;;;5.78;2.20;;;;;;;8.77;100.00;96320.53;5042041;28;20049;-76
2022/09/21 08:48:31;;;;;;;4.25;2.00;;;;;;;8.54;100.00;96324.06;5039683;28;20041;-77
2022/09/21 08:51:06;;;;;;;7.55;2.53;;;;;;;9.03;100.00;96318.31;5045548;28;20037;-77
2022/09/21 08:53:38;;;;;;;4.82;2.15;;;;;;;9.48;100.00;96320.03;5050574;28;20037;-77
2022/09/21 08:56:04;;;;;;;4.20;1.92;;;;;;;9.24;100.00;96308.09;5067581;28;20042;-77
2022/09/21 08:58:31;;;;;;;6.72;2.38;;;;;;;9.12;100.00;96316.88;5047531;28;20045;-78
2022/09/21 09:01:15;;;;;;;7.43;2.20;;;;;;;9.18;100.00;96321.16;5050019;28;20037;-78
2022/09/21 09:04:11;;;;;;;9.07;2.40;;;;;;;9.12;100.00;96322.13;5048794;28;20502;-78
2022/09/21 09:06:58;;;;;;;6.05;2.00;;;;;;;9.76;100.00;96320.13;5049674;28;20041;-76
2022/09/21 09:09:32;;;;;;;5.25;2.50;;;;;;;9.56;100.00;96320.63;5049700;28;20688;-79
2022/09/21 09:12:18;;;;;;;4.50;2.13;;;;;;;9.95;100.00;96317.97;5057151;28;20495;-76
2022/09/21 09:14:46;;;;;;;12.48;4.70;;;;;;;9.92;100.00;96315.84;5046763;28;20126;-77
2022/09/21 09:17:35;;;;;;;7.20;2.70;;;;;;;9.94;100.00;96311.13;5048006;28;20498;-78
2022/09/21 09:20:09;;;;;;;4.93;2.40;;;;;;;9.99;100.00;96313.81;5049868;28;20041;-77
2022/09/21 09:23:13;;;;;;;8.75;2.60;;;;;;;9.86;100.00;96309.72;5043078;28;20120;-77
2022/09/21 09:25:41;;;;;;;6.40;2.28;;;;;;;9.73;100.00;96315.34;5023673;28;20077;-77
2022/09/21 09:28:27;;;;;;;5.28;2.10;;;;;;;9.70;100.00;96314.00;5046529;28;20124;-77
2022/09/21 09:31:00;;;;;;;8.85;2.10;;;;;;;9.63;100.00;96322.03;5040049;28;20091;-77
2022/09/21 09:33:54;;;;;;;6.10;2.30;;;;;;;9.53;100.00;96316.66;5049474;28;20048;-77
2022/09/21 09:36:22;;;;;;;4.93;2.20;;;;;;;9.53;100.00;96322.69;5047562;28;20098;-77
2022/09/21 09:38:59;;;;;;;8.93;2.10;;;;;;;9.58;100.00;96313.31;5057601;28;20465;-78
2022/09/21 09:41:47;;;;;;;6.72;1.98;;;;;;;9.64;100.00;96318.38;5047609;28;20542;-78
2022/09/21 09:44:24;;;;;;;9.90;2.20;;;;;;;9.93;100.00;96304.25;5038227;28;20483;-76
2022/09/21 09:47:12;;;;;;;5.80;1.75;;;;;;;10.48;100.00;96300.66;5042730;28;20043;-78
2022/09/21 09:49:51;;;;;;;5.13;2.03;;;;;;;10.57;100.00;96299.19;5043729;28;20041;-78
2022/09/21 09:52:17;;;;;;;7.47;2.30;;;;;;;11.20;100.00;96301.25;5050597;28;20041;-78
2022/09/21 09:54:43;;;;;;;5.07;1.85;;;;;;;11.67;100.00;96290.97;5070744;28;20096;-78
2022/09/21 09:57:14;;;;;;;5.10;2.20;;;;;;;11.69;100.00;96281.75;5050334;28;20057;-82
2022/09/21 09:59:48;;;;;;;8.02;2.10;;;;;;;11.79;100.00;96281.00;5043034;28;20419;-77
2022/09/21 10:02:26;;;;;;;6.30;2.10;;;;;;;11.03;100.00;96285.59;5047176;28;20075;-77
2022/09/21 10:05:07;;;;;;;6.03;2.53;;;;;;;12.19;100.00;96284.84;5053524;28;20072;-80
2022/09/21 10:07:39;;;;;;;7.65;2.05;;;;;;;13.32;97.48;96273.53;5050321;28;20052;-77
2022/09/21 10:10:23;;;;;;;5.40;2.10;;;;;;;14.17;91.13;96266.63;5040892;28;20041;-78
2022/09/21 10:12:51;;;;;;;4.85;1.98;;;;;;;13.04;94.98;96273.03;5045981;28;20067;-78
2022/09/21 10:15:18;;;;;;;3.33;1.70;;;;;;;12.36;99.25;96283.84;5050847;28;20090;-78
2022/09/21 10:17:47;;;;;;;6.10;1.88;;;;;;;11.67;100.00;96277.81;5045480;28;20041;-77
2022/09/21 10:20:16;;;;;;;7.30;2.10;;;;;;;11.61;100.00;96275.13;5044215;28;20041;-78
2022/09/21 10:22:53;;;;;;;2.92;1.67;;;;;;;13.40;99.42;96269.56;5040853;28;20110;-77
2022/09/21 10:25:19;;;;;;;3.50;2.08;;;;;;;12.51;98.73;96270.66;5050008;28;20052;-77
2022/09/21 10:27:49;;;;;;;4.20;2.08;;;;;;;13.66;90.47;96265.81;5042772;28;20120;-80
2022/09/21 10:30:35;;;;;;;4.10;2.00;;;;;;;12.91;95.00;96263.00;5058001;28;20048;-81
2022/09/21 10:33:01;;;;;;;6.55;2.00;;;;;;;12.27;100.00;96265.09;5050834;28;20056;-78
2022/09/21 10:35:26;;;;;;;6.68;2.17;;;;;;;13.67;95.49;96254.16;5035816;28;20040;-78
2022/09/21 10:38:10;;;;;;;3.80;1.73;;;;;;;13.61;93.67;96263.16;5048072;28;20043;-75
2022/09/21 10:40:38;;;;;;;13.40;1.75;;;;;;;12.63;94.32;96258.00;5049394;28;20516;-76
2022/09/21 10:43:03;;;;;;;5.30;1.88;;;;;;;14.45;82.16;96248.44;5042706;28;20041;-76
2022/09/21 10:45:31;;;;;;;3.47;1.70;;;;;;;12.91;94.96;96242.66;5042595;28;20487;-77
2022/09/21 10:48:14;;;;;;;4.03;1.60;;;;;;;13.20;94.62;96243.94;5055049;28;20076;-76
2022/09/21 10:50:49;;;;;;;4.55;1.60;;;;;;;14.85;78.74;96249.22;5049330;28;20037;-77
2022/09/21 10:53:22;;;;;;;4.13;1.50;;;;;;;14.99;80.48;96244.88;5052308;28;20102;-76
2022/09/21 10:56:01;;;;;;;3.15;1.50;;;;;;;13.97;85.00;96249.78;5053058;28;20068;-75
2022/09/21 10:58:28;;;;;;;3.58;1.63;;;;;;;16.62;75.23;96239.69;5050714;28;20095;-77
2022/09/21 11:00:55;;;;;;;4.38;1.70;;;;;;;17.01;70.21;96246.56;5036794;28;20041;-76
2022/09/21 11:03:29;;;;;;;2.22;1.40;;;;;;;15.27;77.16;96250.44;5039053;28;20072;-76
2022/09/21 11:06:04;;;;;;;5.40;1.90;;;;;;;14.76;75.88;96245.63;5038461;28;20513;-77
2022/09/21 11:08:40;;;;;;;4.80;1.88;;;;;;;15.46;74.69;96247.03;5038918;28;20059;-78
2022/09/21 11:11:33;;;;;;;4.82;1.80;;;;;;;15.92;70.91;96227.97;5040300;28;20487;-78
2022/09/21 11:14:10;;;;;;;3.95;1.90;;;;;;;14.18;78.25;96231.16;5036048;28;20045;-77
2022/09/21 11:16:44;;;;;;;2.25;1.60;;;;;;;13.54;86.68;96233.56;5038573;28;20380;-77
2022/09/21 11:19:47;;;;;;;5.82;1.90;;;;;;;14.74;82.73;96235.28;5041672;28;20053;-77
2022/09/21 11:22:27;;;;;;;4.00;2.05;;;;;;;15.46;70.07;96225.81;5039836;28;20033;-78
2022/09/21 11:25:17;;;;;;;4.13;1.63;;;;;;;16.80;68.09;96225.59;5046921;28;20076;-77
2022/09/21 11:27:48;;;;;;;5.10;2.05;;;;;;;16.63;67.09;96220.81;5048029;28;20033;-77
2022/09/21 11:30:16;;;;;;;2.10;1.50;;;;;;;16.49;66.34;96229.81;5036310;28;20067;-79
2022/09/21 11:33:14;;;;;;;3.53;1.50;;;;;;;16.66;68.76;96219.44;5044234;28;20047;-77
2022/09/21 11:35:51;;;;;;;3.47;1.60;;;;;;;14.79;74.59;96221.19;5040116;28;20041;-77
2022/09/21 11:38:30;;;;;;;7.20;1.67;;;;;;;14.26;81.57;96217.31;5038881;28;20232;-80
2022/09/21 11:41:07;;;;;;;1.65;1.30;;;;;;;16.01;66.92;96205.00;5035799;28;20459;-80
2022/09/21 11:44:10;;;;;;;2.63;1.48;;;;;;;16.80;60.85;96204.31;5049714;28;20564;-77
2022/09/21 11:46:53;;;;;;;2.90;1.20;;;;;;;17.42;60.01;96205.91;5043351;28;20052;-77
2022/09/21 11:49:33;;;;;;;4.68;1.27;;;;;;;18.83;57.35;96206.03;5040092;28;20390;-77
2022/09/21 11:52:26;;;;;;;1.20;1.10;;;;;;;19.50;51.60;96212.31;5038176;28;20541;-76
2022/09/21 11:55:00;;;;;;;3.75;1.10;;;;;;;18.76;52.58;96200.34;5046472;28;20548;-76
2022/09/21 11:57:32;;;;;;;2.88;1.52;;;;;;;18.48;51.28;96189.81;5047223;28;20081;-77